Time;durP1;ratioP1;P1;durP2;ratioP2;P2;SDS_P1;SDS_P2;PMS_P1;PMS_P2;Temp;Humidity;BMP_temperature;BMP_pressure;BME280_temperature;BME280_humidity;BME280_pressure;Samples;Min_cycle;Max_cycle;Signal;HPM_P1;HPM_P2
2023/05/01 00:01:04;;;;;;;6.22;2.83;;;;;;;11.69;74.26;101667.69;4985704;28;20389;-61
2023/05/01 00:03:30;;;;;;;7.00;2.90;;;;;;;11.70;74.25;101669.38;4971698;28;20058;-61
2023/05/01 00:06:00;;;;;;;5.53;2.80;;;;;;;11.70;74.25;101667.47;4977516;28;20473;-62
2023/05/01 00:08:25;;;;;;;5.93;2.80;;;;;;;11.69;75.13;101664.94;4969927;28;20433;-61
2023/05/01 00:10:50;;;;;;;4.80;2.97;;;;;;;11.69;74.01;101657.53;4985235;28;20027;-61
2023/05/01 00:13:20;;;;;;;3.70;2.92;;;;;;;11.71;73.37;101651.84;4988436;28;20469;-62
2023/05/01 00:15:46;;;;;;;5.80;2.65;;;;;;;11.68;73.82;101652.25;4978485;28;20046;-61
2023/05/01 00:18:11;;;;;;;4.70;2.88;;;;;;;11.76;72.90;101649.28;4975486;28;20058;-60
2023/05/01 00:20:36;;;;;;;5.57;2.72;;;;;;;11.73;73.49;101640.59;4989789;28;20037;-61
2023/05/01 00:23:01;;;;;;;4.82;2.42;;;;;;;11.73;73.99;101641.44;4989804;28;20037;-61
2023/05/01 00:25:28;;;;;;;6.30;3.10;;;;;;;11.66;74.74;101637.88;4986679;28;20085;-61
2023/05/01 00:27:53;;;;;;;5.07;3.00;;;;;;;11.69;73.66;101634.69;4989721;28;20026;-61
2023/05/01 00:30:18;;;;;;;6.15;2.80;;;;;;;11.64;74.49;101634.50;4984587;28;20890;-61
2023/05/01 00:32:44;;;;;;;4.95;3.20;;;;;;;11.65;73.45;101627.91;4990592;28;20137;-60
2023/05/01 00:35:09;;;;;;;6.25;3.00;;;;;;;11.64;73.89;101629.00;4982049;28;20031;-61
2023/05/01 00:37:34;;;;;;;7.93;3.20;;;;;;;11.62;74.71;101622.88;4970473;28;20063;-61
2023/05/01 00:40:00;;;;;;;5.07;2.90;;;;;;;11.64;74.12;101623.47;4972407;28;20034;-61
2023/05/01 00:42:25;;;;;;;4.72;2.85;;;;;;;11.52;76.09;101620.59;4988631;28;20093;-61
2023/05/01 00:44:50;;;;;;;5.25;3.33;;;;;;;11.59;74.72;101617.78;4983679;28;20037;-61
2023/05/01 00:47:15;;;;;;;5.28;3.10;;;;;;;11.51;75.88;101623.56;4968431;28;20052;-61
2023/05/01 00:49:42;;;;;;;6.55;3.30;;;;;;;11.49;75.92;101614.66;4978850;28;20046;-61
2023/05/01 00:52:08;;;;;;;5.25;3.03;;;;;;;11.49;75.22;101609.16;4989409;28;20089;-61
2023/05/01 00:54:35;;;;;;;5.10;2.72;;;;;;;11.47;75.96;101611.31;4986568;28;20590;-60
2023/05/01 00:57:01;;;;;;;5.90;2.97;;;;;;;11.48;74.89;101608.31;4971739;28;20089;-61
2023/05/01 00:59:26;;;;;;;6.35;3.00;;;;;;;11.44;75.66;101596.06;4984185;28;20073;-61
2023/05/01 01:01:51;;;;;;;4.15;2.58;;;;;;;11.43;76.46;101600.72;4986485;28;20074;-61
2023/05/01 01:04:17;;;;;;;5.72;2.95;;;;;;;11.42;75.75;101600.94;4979027;28;20030;-58
2023/05/01 01:06:53;;;;;;;5.88;3.35;;;;;;;11.41;76.27;101597.34;4967132;28;20093;-61
2023/05/01 01:09:44;;;;;;;5.03;3.05;;;;;;;11.46;76.21;101590.38;4969502;28;20105;-61
2023/05/01 01:12:16;;;;;;;4.55;3.22;;;;;;;11.38;76.93;101596.94;4984643;28;20040;-61
2023/05/01 01:14:49;;;;;;;5.80;2.83;;;;;;;11.36;76.79;101588.91;4982894;28;20075;-61
2023/05/01 01:17:33;;;;;;;4.82;3.08;;;;;;;11.41;76.00;101591.00;4978101;28;20033;-61
2023/05/01 01:20:11;;;;;;;5.35;2.92;;;;;;;11.33;77.02;101580.25;4989486;28;20073;-61
2023/05/01 01:22:40;;;;;;;5.68;3.10;;;;;;;11.29;77.44;101579.00;4988718;28;20058;-60
2023/05/01 01:25:20;;;;;;;4.88;3.30;;;;;;;11.26;77.87;101580.28;4982126;28;20126;-61
2023/05/01 01:28:20;;;;;;;7.07;3.28;;;;;;;11.24;78.03;101571.38;4984644;28;20038;-61
2023/05/01 01:31:07;;;;;;;5.40;3.45;;;;;;;11.21;78.43;101580.09;4986839;28;20389;-61
2023/05/01 01:33:54;;;;;;;5.18;3.10;;;;;;;11.20;77.84;101564.63;4970386;28;20390;-61
2023/05/01 01:36:29;;;;;;;4.55;2.97;;;;;;;11.17;77.65;101560.41;4969786;28;20469;-61
2023/05/01 01:39:26;;;;;;;5.38;3.40;;;;;;;11.17;77.63;101552.19;4968569;28;20077;-61
2023/05/01 01:41:53;;;;;;;5.72;3.35;;;;;;;11.13;78.75;101550.06;4968301;28;20030;-61
2023/05/01 01:44:29;;;;;;;6.05;3.47;;;;;;;11.13;77.73;101544.56;4988094;28;20354;-61
2023/05/01 01:46:56;;;;;;;6.90;3.55;;;;;;;11.15;78.92;101542.44;4969363;28;20077;-59
2023/05/01 01:49:26;;;;;;;6.22;3.65;;;;;;;11.16;77.57;101538.66;4984385;28;20034;-61
2023/05/01 01:51:54;;;;;;;6.00;3.17;;;;;;;11.24;77.33;101532.06;4987002;28;20038;-61
2023/05/01 01:54:27;;;;;;;5.55;3.38;;;;;;;11.19;76.93;101532.69;4986329;28;20268;-61
2023/05/01 01:56:54;;;;;;;5.97;3.17;;;;;;;11.15;77.19;101537.81;4974226;28;20021;-61
2023/05/01 01:59:21;;;;;;;6.97;3.17;;;;;;;11.09;76.67;101530.41;4958202;28;20051;-61
2023/05/01 02:01:49;;;;;;;6.40;3.22;;;;;;;11.05;77.73;101526.44;4978464;28;20038;-60
2023/05/01 02:04:17;;;;;;;6.45;3.53;;;;;;;10.99;76.96;101527.28;4970201;28;20043;-62
2023/05/01 02:06:44;;;;;;;6.90;3.30;;;;;;;10.96;77.81;101521.41;4956308;28;20043;-61
2023/05/01 02:09:11;;;;;;;6.15;3.50;;;;;;;10.91;78.86;101520.13;4962200;28;20027;-61
2023/05/01 02:11:37;;;;;;;7.43;3.63;;;;;;;10.88;79.10;101519.72;4975393;28;20027;-61
2023/05/01 02:14:03;;;;;;;6.43;3.45;;;;;;;10.92;78.73;101515.47;4987202;28;20033;-61
2023/05/01 02:16:29;;;;;;;5.50;3.50;;;;;;;10.88;79.40;101512.31;4978896;28;20410;-61
2023/05/01 02:18:56;;;;;;;4.43;3.50;;;;;;;10.89;80.42;101507.66;4982268;28;20048;-60
2023/05/01 02:21:22;;;;;;;7.68;3.85;;;;;;;10.90;79.10;101510.22;4980441;28;20059;-61
2023/05/01 02:23:47;;;;;;;6.43;3.72;;;;;;;10.86;79.77;101511.69;4979385;28;20026;-59
2023/05/01 02:26:16;;;;;;;6.30;3.95;;;;;;;10.79;81.88;101508.09;4988704;28;20030;-61
2023/05/01 02:28:41;;;;;;;6.38;3.30;;;;;;;10.82;79.66;101507.69;4987646;28;20046;-61
2023/05/01 02:31:08;;;;;;;6.82;3.47;;;;;;;10.81;78.88;101503.25;4982172;28;20432;-61
2023/05/01 02:33:33;;;;;;;7.25;4.00;;;;;;;10.80;79.59;101501.56;4971137;28;20101;-61
2023/05/01 02:35:59;;;;;;;6.65;3.28;;;;;;;10.79;79.72;101499.03;4987806;28;20561;-60
2023/05/01 02:38:24;;;;;;;8.07;4.05;;;;;;;10.78;81.51;101491.84;5032584;22;20044;-61
2023/05/01 02:40:55;;;;;;;6.45;3.58;;;;;;;10.76;80.19;101499.47;5003989;28;20101;-60
2023/05/01 02:43:25;;;;;;;6.57;3.63;;;;;;;10.73;80.39;101483.41;5015977;28;20099;-61
2023/05/01 02:45:53;;;;;;;6.75;4.00;;;;;;;10.81;80.42;101481.28;5027430;28;20112;-61
2023/05/01 02:48:20;;;;;;;;;;;;;;;10.87;78.88;101480.41;5027152;28;20038;-61
2023/05/01 02:50:48;;;;;;;5.93;3.70;;;;;;;10.73;79.77;101477.91;5027899;28;19923;-61
2023/05/01 02:53:15;;;;;;;7.22;3.40;;;;;;;10.67;80.27;101471.38;5007134;28;20087;-61
2023/05/01 02:55:44;;;;;;;6.63;4.10;;;;;;;10.61;80.81;101470.34;5026149;28;20056;-61
2023/05/01 02:58:16;;;;;;;8.27;4.10;;;;;;;10.68;80.60;101466.72;5009719;28;20096;-61
2023/05/01 03:00:42;;;;;;;8.23;4.07;;;;;;;10.59;81.23;101457.88;5026825;28;20029;-60
2023/05/01 03:03:07;;;;;;;6.35;4.03;;;;;;;10.55;82.23;101460.22;5009006;28;20857;-61
2023/05/01 03:05:32;;;;;;;5.38;3.30;;;;;;;10.54;82.56;101463.16;5011667;28;20043;-61
2023/05/01 03:07:58;;;;;;;6.78;4.07;;;;;;;10.58;82.74;101458.94;5025427;28;20022;-60
2023/05/01 03:10:23;;;;;;;6.28;3.97;;;;;;;10.55;82.55;101457.47;5021168;28;20061;-62
2023/05/01 03:12:48;;;;;;;7.85;4.30;;;;;;;10.46;82.80;101449.69;5019708;28;20045;-61
2023/05/01 03:15:13;;;;;;;5.40;3.63;;;;;;;10.54;82.09;101458.53;5021814;28;20029;-61
2023/05/01 03:17:39;;;;;;;6.88;3.95;;;;;;;10.49;81.61;101449.25;5007665;28;20034;-60
2023/05/01 03:20:05;;;;;;;6.43;4.00;;;;;;;10.39;85.23;101447.81;5002597;28;20018;-60
2023/05/01 03:22:31;;;;;;;6.93;4.30;;;;;;;10.41;89.85;101452.22;5003538;28;20050;-61
2023/05/01 03:24:57;;;;;;;6.45;4.13;;;;;;;10.37;89.66;101447.16;5006271;28;20018;-61
2023/05/01 03:27:23;;;;;;;8.23;4.32;;;;;;;10.36;91.51;101439.97;5007196;28;20026;-61
2023/05/01 03:29:48;;;;;;;8.07;4.57;;;;;;;10.34;90.62;101430.25;5007044;28;20065;-60
2023/05/01 03:32:15;;;;;;;6.97;4.55;;;;;;;10.38;88.97;101435.09;5006948;28;20080;-61
2023/05/01 03:34:40;;;;;;;6.95;4.45;;;;;;;10.27;87.95;101430.28;5007336;28;20261;-61
2023/05/01 03:37:05;;;;;;;7.68;4.63;;;;;;;10.28;85.84;101433.88;5005721;28;20038;-61
2023/05/01 03:39:31;;;;;;;7.70;4.18;;;;;;;10.32;85.84;101427.75;5001717;28;20045;-61
2023/05/01 03:41:57;;;;;;;8.80;3.92;;;;;;;10.27;86.80;101424.78;5006581;28;20117;-61
2023/05/01 03:44:23;;;;;;;6.28;4.13;;;;;;;10.27;87.19;101430.28;5022354;28;20539;-61
2023/05/01 03:46:48;;;;;;;8.07;4.10;;;;;;;10.31;88.44;101423.31;5024319;28;20041;-60
2023/05/01 03:49:13;;;;;;;8.00;4.50;;;;;;;10.31;88.91;101420.56;5026343;28;20030;-61
2023/05/01 03:51:39;;;;;;;7.15;4.65;;;;;;;10.32;86.09;101419.50;5011870;28;20393;-61
2023/05/01 03:54:04;;;;;;;6.85;4.28;;;;;;;10.34;84.97;101416.53;5010358;28;20190;-61
2023/05/01 03:56:34;;;;;;;6.85;4.15;;;;;;;10.31;85.48;101417.81;5007371;28;20464;-60
2023/05/01 03:59:00;;;;;;;8.70;4.28;;;;;;;10.33;85.66;101412.94;5025310;28;20388;-60
2023/05/01 04:01:25;;;;;;;7.57;4.53;;;;;;;10.32;91.20;101416.75;5008501;28;20030;-60
2023/05/01 04:03:51;;;;;;;7.53;4.45;;;;;;;10.21;89.97;101409.16;5007608;28;20025;-60
2023/05/01 04:06:17;;;;;;;7.13;4.60;;;;;;;10.17;92.25;101407.88;5012446;28;20032;-60
2023/05/01 04:08:42;;;;;;;7.65;4.60;;;;;;;10.13;91.48;101412.13;5018021;28;20026;-60
2023/05/01 04:11:08;;;;;;;8.38;4.88;;;;;;;10.12;90.59;101410.44;5004926;28;20040;-60
2023/05/01 04:13:33;;;;;;;8.95;4.60;;;;;;;10.12;92.24;101413.19;5005920;28;20041;-60
2023/05/01 04:15:58;;;;;;;7.50;4.70;;;;;;;10.13;92.96;101406.63;5003088;28;20138;-61
2023/05/01 04:18:24;;;;;;;8.10;5.05;;;;;;;10.10;96.86;101407.06;5004580;28;20127;-61
2023/05/01 04:20:50;;;;;;;7.07;5.07;;;;;;;10.11;99.05;101409.59;5005806;28;20041;-60
2023/05/01 04:23:15;;;;;;;7.78;5.03;;;;;;;10.13;98.58;101412.13;5020803;28;20039;-60
2023/05/01 04:25:40;;;;;;;6.45;4.32;;;;;;;10.13;98.30;101398.38;5026207;28;20056;-61
2023/05/01 04:28:06;;;;;;;6.13;4.82;;;;;;;10.12;98.36;101404.94;5019211;28;20084;-61
2023/05/01 04:30:31;;;;;;;9.50;4.95;;;;;;;10.20;96.04;101409.38;5004646;28;20080;-61
2023/05/01 04:33:00;;;;;;;8.00;4.80;;;;;;;10.20;96.95;101404.72;5005651;28;20025;-61
2023/05/01 04:35:26;;;;;;;8.40;4.90;;;;;;;10.20;96.22;101404.72;5006350;28;20096;-61
2023/05/01 04:37:51;;;;;;;7.75;4.80;;;;;;;10.18;93.72;101404.09;5005394;28;20029;-61
2023/05/01 04:40:17;;;;;;;8.90;4.82;;;;;;;10.21;94.24;101402.81;5006525;28;20049;-61
2023/05/01 04:42:42;;;;;;;5.75;4.53;;;;;;;10.28;94.96;101403.66;5006735;28;20026;-61
2023/05/01 04:45:08;;;;;;;6.88;4.60;;;;;;;10.27;94.72;101400.09;5005862;28;20029;-60
2023/05/01 04:47:33;;;;;;;6.45;4.57;;;;;;;10.29;95.07;101402.59;5006021;28;20073;-61
2023/05/01 04:49:59;;;;;;;8.35;4.55;;;;;;;10.27;94.68;101413.81;5005927;28;20026;-61
2023/05/01 04:52:24;;;;;;;7.47;4.97;;;;;;;10.32;94.79;101415.91;5005499;28;20129;-61
2023/05/01 04:54:49;;;;;;;8.07;4.53;;;;;;;10.31;93.62;101415.06;5005123;28;20030;-61
2023/05/01 04:57:15;;;;;;;7.45;4.47;;;;;;;10.31;93.37;101409.59;5006065;28;20022;-61
2023/05/01 04:59:40;;;;;;;8.95;5.15;;;;;;;10.32;94.10;101411.25;5004966;28;20542;-60
2023/05/01 05:02:06;;;;;;;7.68;4.63;;;;;;;10.31;93.55;101414.22;5008023;28;20030;-61
2023/05/01 05:04:32;;;;;;;7.50;4.47;;;;;;;10.30;92.27;101413.41;5009036;28;20026;-61
2023/05/01 05:06:57;;;;;;;6.65;4.80;;;;;;;10.27;94.23;101408.31;5005181;28;20477;-61
2023/05/01 05:09:23;;;;;;;9.38;4.47;;;;;;;10.31;93.71;101398.59;4988271;28;20057;-60
2023/05/01 05:11:48;;;;;;;8.45;4.38;;;;;;;10.33;93.68;101404.72;4988611;28;20031;-61
2023/05/01 05:14:13;;;;;;;6.53;4.60;;;;;;;10.31;94.80;101406.84;4989707;28;20180;-61
2023/05/01 05:16:38;;;;;;;7.30;4.68;;;;;;;10.31;94.25;101403.25;4999497;28;20037;-61
2023/05/01 05:19:04;;;;;;;6.18;4.57;;;;;;;10.41;91.48;101402.81;5008306;28;20026;-61
2023/05/01 05:21:30;;;;;;;6.93;4.25;;;;;;;10.28;92.00;101409.16;5008365;28;20033;-61
2023/05/01 05:23:56;;;;;;;6.70;4.50;;;;;;;10.23;92.00;101401.53;5007181;28;20021;-61
2023/05/01 05:26:22;;;;;;;8.00;4.65;;;;;;;10.26;91.10;101406.63;5008688;28;20025;-60
2023/05/01 05:28:47;;;;;;;8.35;4.82;;;;;;;10.29;90.82;101405.34;5009096;28;20038;-61
2023/05/01 05:31:12;;;;;;;8.48;4.50;;;;;;;10.33;91.48;101401.97;5009541;28;20021;-60
2023/05/01 05:33:38;;;;;;;8.68;4.75;;;;;;;10.41;89.68;101408.28;5009235;28;20030;-61
2023/05/01 05:36:03;;;;;;;7.35;4.65;;;;;;;10.42;89.12;101399.84;5007615;28;20046;-61
2023/05/01 05:38:28;;;;;;;8.68;4.47;;;;;;;10.43;88.99;101407.00;5007848;28;20036;-59
2023/05/01 05:40:54;;;;;;;8.55;4.55;;;;;;;10.51;86.73;101403.19;5008391;28;20085;-61
2023/05/01 05:43:19;;;;;;;8.35;4.53;;;;;;;10.50;85.33;101407.84;5008945;28;20033;-61
2023/05/01 05:45:45;;;;;;;8.63;5.20;;;;;;;10.46;87.74;101405.75;5008915;28;20076;-60
2023/05/01 05:48:10;;;;;;;7.57;4.85;;;;;;;10.58;86.03;101402.09;5008694;28;20029;-61
2023/05/01 05:50:35;;;;;;;8.80;5.03;;;;;;;10.59;87.79;101397.44;5008459;28;20451;-61
2023/05/01 05:53:00;;;;;;;6.90;4.68;;;;;;;10.64;85.35;101400.38;5007584;28;20033;-60
2023/05/01 05:55:26;;;;;;;8.23;5.10;;;;;;;10.68;86.25;101398.03;5008269;28;20069;-61
2023/05/01 05:57:52;;;;;;;8.27;4.95;;;;;;;10.75;85.88;101402.47;5008818;28;20239;-61
2023/05/01 06:00:17;;;;;;;7.65;4.65;;;;;;;10.83;84.79;101393.13;5009150;28;20022;-59
2023/05/01 06:02:43;;;;;;;6.93;4.90;;;;;;;10.83;85.76;101393.94;5008516;28;20033;-61
2023/05/01 06:05:09;;;;;;;9.23;5.32;;;;;;;10.93;84.15;101393.47;5007937;28;20029;-61
2023/05/01 06:07:36;;;;;;;9.00;5.45;;;;;;;10.83;85.54;101385.72;5007616;28;20076;-61
2023/05/01 06:10:03;;;;;;;9.38;5.85;;;;;;;10.93;86.08;101390.75;5007793;28;20040;-61
2023/05/01 06:12:28;;;;;;;8.80;5.00;;;;;;;10.98;85.37;101382.66;5007170;28;20044;-63
2023/05/01 06:14:54;;;;;;;8.52;5.65;;;;;;;11.03;86.55;101384.75;5000133;28;20113;-61
2023/05/01 06:17:19;;;;;;;9.30;5.30;;;;;;;11.19;83.36;101389.72;5005258;28;20044;-62
2023/05/01 06:19:45;;;;;;;9.65;6.00;;;;;;;11.14;83.65;101387.63;5007906;28;20084;-62
2023/05/01 06:22:10;;;;;;;8.68;5.95;;;;;;;11.23;84.20;101381.88;5005559;28;20037;-61
2023/05/01 06:24:36;;;;;;;8.45;5.72;;;;;;;11.15;84.71;101388.47;5008164;28;20030;-62
2023/05/01 06:27:01;;;;;;;8.18;5.88;;;;;;;11.22;85.18;101388.47;5007415;28;20030;-60
2023/05/01 06:29:26;;;;;;;8.70;5.60;;;;;;;11.40;84.48;101397.63;5007968;28;20054;-62
2023/05/01 06:31:52;;;;;;;10.02;5.80;;;;;;;11.55;83.11;101393.69;5007033;28;20026;-61
2023/05/01 06:34:17;;;;;;;7.30;5.85;;;;;;;11.63;81.94;101386.03;5007945;28;20030;-61
2023/05/01 06:36:42;;;;;;;8.30;5.60;;;;;;;11.72;81.11;101394.84;5005589;28;20026;-61
2023/05/01 06:39:07;;;;;;;7.43;5.40;;;;;;;11.70;81.66;101377.69;5005981;28;20053;-62
2023/05/01 06:41:33;;;;;;;8.18;5.57;;;;;;;11.76;82.12;101396.09;5007721;28;20022;-62
2023/05/01 06:43:58;;;;;;;10.10;6.15;;;;;;;11.84;81.56;101384.81;5006911;28;20085;-62
2023/05/01 06:46:23;;;;;;;9.15;5.70;;;;;;;11.94;81.06;101387.88;5007361;28;20025;-62
2023/05/01 06:48:49;;;;;;;9.40;5.70;;;;;;;12.14;79.68;101381.34;5006572;28;20053;-62
2023/05/01 06:51:14;;;;;;;9.43;6.15;;;;;;;12.19;80.84;101381.50;5007886;28;20022;-62
2023/05/01 06:53:40;;;;;;;8.95;6.03;;;;;;;12.18;78.70;101377.06;5005052;28;20033;-62
2023/05/01 06:56:06;;;;;;;9.52;5.97;;;;;;;12.15;78.74;101383.00;5007372;28;20045;-62
2023/05/01 06:58:31;;;;;;;10.05;5.65;;;;;;;12.17;79.03;101378.13;5007166;28;20022;-61
2023/05/01 07:01:49;;;;;;;;;;;;;;;;;;;;;
2023/05/01 07:04:14;;;;;;;;;;;;;;;12.26;79.34;101379.50;4985862;28;20033;-63
2023/05/01 07:06:39;;;;;;;9.23;6.43;;;;;;;12.44;78.33;101378.66;5006260;28;20017;-61
2023/05/01 07:09:05;;;;;;;9.70;6.18;;;;;;;12.47;77.94;101375.47;5005444;28;20049;-63
2023/05/01 07:11:31;;;;;;;10.52;6.38;;;;;;;12.58;81.27;101382.97;5006270;28;20121;-62
2023/05/01 07:13:57;;;;;;;9.68;6.78;;;;;;;12.70;77.84;101381.09;5007135;28;20330;-62
2023/05/01 07:16:22;;;;;;;11.15;6.88;;;;;;;12.82;77.81;101377.53;5006677;28;20136;-62
2023/05/01 07:18:47;;;;;;;9.38;6.93;;;;;;;12.92;77.60;101372.31;5006064;28;20059;-57
2023/05/01 07:21:13;;;;;;;10.00;5.72;;;;;;;13.03;75.74;101376.19;5002550;28;20477;-60
2023/05/01 07:23:38;;;;;;;8.45;6.10;;;;;;;13.14;81.45;101380.94;5006485;28;20564;-60
2023/05/01 07:26:04;;;;;;;9.00;7.05;;;;;;;13.55;79.27;101373.75;5006516;28;20034;-60
2023/05/01 07:28:30;;;;;;;8.98;6.45;;;;;;;13.98;71.58;101365.94;5007240;28;20031;-60
2023/05/01 07:30:55;;;;;;;8.50;6.38;;;;;;;14.26;71.55;101362.47;5006553;28;20030;-60
2023/05/01 07:33:22;;;;;;;9.23;6.25;;;;;;;14.16;70.05;101364.16;5007250;28;20360;-60
2023/05/01 07:35:47;;;;;;;8.35;6.15;;;;;;;14.01;70.49;101367.41;5006373;28;20110;-59
2023/05/01 07:38:15;;;;;;;8.98;7.22;;;;;;;14.09;70.70;101367.06;5006358;28;20022;-59
2023/05/01 07:40:40;;;;;;;10.07;6.85;;;;;;;14.10;70.88;101370.66;5006846;28;20050;-60
2023/05/01 07:43:07;;;;;;;7.88;6.70;;;;;;;14.17;70.75;101369.44;5006088;28;20046;-60
2023/05/01 07:45:32;;;;;;;8.85;6.93;;;;;;;14.33;68.97;101370.59;5006704;28;20080;-60
2023/05/01 07:47:57;;;;;;;9.07;7.10;;;;;;;14.42;68.38;101371.91;5003831;28;20022;-60
2023/05/01 07:50:24;;;;;;;10.23;6.65;;;;;;;14.65;67.84;101370.19;5005406;28;20117;-60
2023/05/01 07:52:50;;;;;;;11.05;7.00;;;;;;;14.86;70.36;101377.84;5005112;28;20022;-60
2023/05/01 07:55:18;;;;;;;10.18;6.78;;;;;;;14.89;66.35;101380.09;5007005;28;20465;-60
2023/05/01 07:57:43;;;;;;;9.80;7.85;;;;;;;15.18;66.67;101378.16;5005226;28;20531;-60
2023/05/01 08:00:09;;;;;;;11.35;7.30;;;;;;;15.24;66.03;101373.56;5006215;28;20030;-60
2023/05/01 08:02:34;;;;;;;9.10;6.88;;;;;;;15.44;65.41;101373.09;5006314;28;20034;-60
2023/05/01 08:05:01;;;;;;;11.48;6.88;;;;;;;15.61;65.11;101378.63;5006460;28;20084;-61
2023/05/01 08:07:26;;;;;;;9.10;7.00;;;;;;;15.67;64.94;101384.06;5005551;28;20048;-60
2023/05/01 08:09:52;;;;;;;11.00;6.72;;;;;;;15.71;64.97;101376.06;5006445;28;20041;-60
2023/05/01 08:12:17;;;;;;;8.45;6.45;;;;;;;15.82;63.45;101380.69;5006958;28;20097;-58
2023/05/01 08:14:42;;;;;;;10.60;6.70;;;;;;;15.97;66.14;101380.94;5005720;28;20030;-59
2023/05/01 08:17:08;;;;;;;12.55;7.82;;;;;;;16.03;63.69;101377.13;5006172;28;20482;-59
2023/05/01 08:19:33;;;;;;;10.48;6.88;;;;;;;16.13;63.34;101375.63;5005544;28;20033;-60
2023/05/01 08:21:59;;;;;;;10.43;7.13;;;;;;;16.37;64.76;101376.22;5004444;28;20472;-59
2023/05/01 08:24:24;;;;;;;10.05;6.43;;;;;;;16.37;63.20;101370.66;5006723;28;20424;-59
2023/05/01 08:26:50;;;;;;;10.07;6.93;;;;;;;16.48;64.31;101375.28;5006027;28;20057;-60
2023/05/01 08:29:15;;;;;;;9.90;6.75;;;;;;;16.58;62.56;101365.16;5006594;28;20022;-60
2023/05/01 08:31:42;;;;;;;9.50;6.43;;;;;;;16.72;62.11;101368.38;5006353;28;20403;-61
2023/05/01 08:34:07;;;;;;;9.32;6.63;;;;;;;16.86;61.70;101366.06;5007223;28;20608;-60
2023/05/01 08:36:33;;;;;;;9.88;6.53;;;;;;;17.19;60.79;101364.19;5009998;28;20060;-60
2023/05/01 08:38:58;;;;;;;10.23;6.38;;;;;;;17.37;58.73;101367.41;5008670;28;20049;-60
2023/05/01 08:41:24;;;;;;;8.18;6.78;;;;;;;17.48;58.25;101365.56;5009144;28;20033;-60
2023/05/01 08:43:50;;;;;;;8.35;6.40;;;;;;;17.71;57.50;101364.38;5004995;28;20443;-60
2023/05/01 08:46:28;;;;;;;7.85;6.80;;;;;;;17.91;58.66;101368.44;5001995;28;20026;-60
2023/05/01 08:48:56;;;;;;;;;;;;;;;18.29;58.95;101364.50;5007664;28;20038;-60
2023/05/01 08:51:23;;;;;;;10.10;6.50;;;;;;;18.24;56.95;101367.25;5009622;28;20422;-58
2023/05/01 08:53:51;;;;;;;9.85;6.53;;;;;;;18.34;56.36;101362.59;5013817;28;20468;-60
2023/05/01 08:56:18;;;;;;;8.50;6.50;;;;;;;18.51;55.32;101365.19;5015884;28;20029;-60
2023/05/01 08:58:48;;;;;;;8.43;7.00;;;;;;;18.82;56.27;101368.13;5010344;28;20018;-60
2023/05/01 09:01:14;;;;;;;7.65;5.63;;;;;;;18.91;56.15;101364.53;4997460;28;20041;-60
2023/05/01 09:03:43;;;;;;;8.25;6.10;;;;;;;18.84;56.19;101360.34;5002466;28;20109;-59
2023/05/01 09:06:09;;;;;;;8.48;6.13;;;;;;;19.01;52.96;101372.09;4996037;28;20117;-61
2023/05/01 09:08:35;;;;;;;7.68;6.20;;;;;;;19.56;52.21;101358.50;4995970;28;20030;-59
2023/05/01 09:11:02;;;;;;;11.20;6.10;;;;;;;20.04;51.96;101367.44;5007196;28;20161;-60
2023/05/01 09:13:27;;;;;;;10.10;6.57;;;;;;;20.57;51.71;101371.47;5013164;28;20035;-59
2023/05/01 09:15:53;;;;;;;9.88;6.22;;;;;;;20.95;49.21;101367.13;5009210;28;20034;-59
2023/05/01 09:18:18;;;;;;;10.77;6.00;;;;;;;21.69;47.89;101367.19;5002178;28;20475;-60
2023/05/01 09:20:43;;;;;;;8.10;5.63;;;;;;;22.58;46.96;101366.88;5013419;28;20033;-58
2023/05/01 09:23:10;;;;;;;8.38;5.82;;;;;;;23.14;45.09;101360.53;4996989;28;20044;-60
2023/05/01 09:25:35;;;;;;;7.68;5.55;;;;;;;24.42;41.49;101367.63;5005414;28;20037;-59
2023/05/01 09:28:03;;;;;;;7.75;5.25;;;;;;;25.39;38.97;101369.13;5007835;28;20447;-60
2023/05/01 09:30:35;;;;;;;;;;;;;;;26.53;41.76;101369.56;5009584;28;20032;-60
2023/05/01 09:33:14;;;;;;;8.50;5.60;;;;;;;25.47;38.10;101364.75;5003687;28;19925;-60
2023/05/01 09:35:56;;;;;;;7.40;5.25;;;;;;;24.77;41.55;101366.88;5005464;28;20034;-60
2023/05/01 09:38:26;;;;;;;8.43;5.38;;;;;;;24.52;39.84;101373.03;5000771;28;20511;-61
2023/05/01 09:40:53;;;;;;;7.30;5.10;;;;;;;25.15;38.75;101363.81;5001186;28;20455;-60
2023/05/01 09:43:26;;;;;;;8.30;5.53;;;;;;;25.49;40.39;101365.25;5012133;28;20099;-61
2023/05/01 09:46:11;;;;;;;6.78;5.47;;;;;;;25.66;40.33;101368.22;5000484;28;20179;-61
2023/05/01 09:48:37;;;;;;;7.50;5.13;;;;;;;24.75;39.59;101352.31;5010517;28;20026;-60
2023/05/01 09:51:23;;;;;;;8.23;5.13;;;;;;;24.24;44.64;101358.13;5001045;28;20038;-59
2023/05/01 09:53:49;;;;;;;8.88;5.18;;;;;;;24.36;39.67;101363.25;5002649;28;20018;-61
2023/05/01 09:56:14;;;;;;;8.00;5.03;;;;;;;24.69;40.59;101361.19;4998484;28;20056;-60
2023/05/01 09:58:40;;;;;;;7.05;5.25;;;;;;;24.59;40.01;101367.84;4999802;28;20356;-61
2023/05/01 10:01:05;;;;;;;10.35;5.63;;;;;;;25.10;39.40;101355.50;5003867;28;20108;-60
2023/05/01 10:03:32;;;;;;;8.15;5.63;;;;;;;25.80;39.15;101368.16;5010533;28;20029;-58
2023/05/01 10:06:00;;;;;;;6.25;5.13;;;;;;;25.74;37.48;101372.22;5009913;28;20322;-60
2023/05/01 10:08:26;;;;;;;7.60;5.57;;;;;;;24.72;37.53;101364.16;5006307;28;20105;-60
2023/05/01 10:11:07;;;;;;;8.15;5.35;;;;;;;23.68;42.30;101364.75;5006966;28;20401;-61
2023/05/01 10:13:32;;;;;;;7.13;5.50;;;;;;;22.66;44.79;101366.22;5009284;28;20040;-59
2023/05/01 10:16:00;;;;;;;7.90;6.00;;;;;;;21.94;44.25;101366.94;5004566;28;20120;-60
2023/05/01 10:18:26;;;;;;;7.03;6.28;;;;;;;21.64;47.79;101373.66;5004291;28;20040;-60
2023/05/01 10:20:51;;;;;;;8.07;6.25;;;;;;;21.41;48.27;101363.22;5016002;28;20140;-60
2023/05/01 10:23:17;;;;;;;7.63;5.60;;;;;;;21.29;48.59;101371.09;5007884;28;20132;-59
2023/05/01 10:25:43;;;;;;;7.05;5.57;;;;;;;21.27;47.90;101373.34;5007938;28;20026;-60
2023/05/01 10:28:11;;;;;;;6.70;5.13;;;;;;;21.02;47.79;101375.19;5001805;28;20425;-60
2023/05/01 10:30:37;;;;;;;7.90;5.03;;;;;;;21.30;46.55;101376.44;5008581;28;20034;-60
2023/05/01 10:33:04;;;;;;;7.03;5.30;;;;;;;21.69;47.20;101376.41;5008552;28;20080;-60
2023/05/01 10:35:37;;;;;;;9.10;5.10;;;;;;;22.05;47.40;101373.31;5013843;28;20024;-60
2023/05/01 10:38:08;;;;;;;6.68;5.40;;;;;;;22.61;45.79;101375.50;5019557;28;20072;-61
2023/05/01 10:40:39;;;;;;;8.50;5.57;;;;;;;22.94;46.17;101367.25;5008467;28;20475;-60
2023/05/01 10:43:28;;;;;;;7.45;5.72;;;;;;;22.96;45.22;101376.19;5007965;28;20125;-60
2023/05/01 10:46:06;;;;;;;11.05;5.90;;;;;;;22.59;45.34;101368.53;5007472;28;20099;-61
2023/05/01 10:48:41;;;;;;;8.18;5.63;;;;;;;22.62;46.24;101373.53;5007097;28;20026;-61
2023/05/01 10:51:08;;;;;;;9.45;5.90;;;;;;;23.16;45.08;101369.44;5007787;28;20176;-61
2023/05/01 10:53:33;;;;;;;9.80;6.03;;;;;;;24.17;41.57;101369.75;5006417;28;20022;-60
2023/05/01 10:55:59;;;;;;;7.43;5.32;;;;;;;25.01;41.52;101365.81;5022453;28;20088;-60
2023/05/01 10:58:39;;;;;;;7.35;5.32;;;;;;;24.77;41.80;101366.88;5005005;28;20036;-60
2023/05/01 11:01:33;;;;;;;8.05;5.40;;;;;;;23.46;43.13;101380.19;5007805;28;20582;-60
2023/05/01 11:04:06;;;;;;;7.55;5.70;;;;;;;22.71;44.49;101378.19;5006256;28;20034;-61
2023/05/01 11:06:32;;;;;;;7.78;5.50;;;;;;;22.68;46.00;101369.53;5005029;28;20030;-60
2023/05/01 11:08:58;;;;;;;8.38;5.65;;;;;;;22.48;45.13;101376.22;5007787;28;20071;-60
2023/05/01 11:11:24;;;;;;;8.20;5.68;;;;;;;22.40;46.54;101374.88;5005294;28;20034;-60
2023/05/01 11:14:03;;;;;;;8.10;6.10;;;;;;;22.54;46.80;101377.81;5007685;28;20052;-60
2023/05/01 11:16:45;;;;;;;7.97;5.57;;;;;;;22.37;47.02;101374.66;5003713;28;20496;-60
2023/05/01 11:19:32;;;;;;;7.13;5.55;;;;;;;22.25;47.59;101384.31;5006393;28;20037;-60
2023/05/01 11:21:59;;;;;;;7.18;5.70;;;;;;;22.27;46.61;101376.44;5005502;28;20034;-61
2023/05/01 11:24:31;;;;;;;7.25;5.45;;;;;;;22.03;46.44;101376.38;5006373;28;20520;-60
2023/05/01 11:26:59;;;;;;;7.45;5.57;;;;;;;21.67;45.51;101378.66;5025180;28;20420;-60
2023/05/01 11:29:31;;;;;;;7.70;5.83;;;;;;;21.61;47.81;101379.00;5009116;28;20026;-57